Time;durP1;ratioP1;P1;durP2;ratioP2;P2;SDS_P1;SDS_P2;PMS_P1;PMS_P2;Temp;Humidity;BMP_temperature;BMP_pressure;BME280_temperature;BME280_humidity;BME280_pressure;Samples;Min_cycle;Max_cycle;Signal;HPM_P1;HPM_P2
2023/04/19 00:02:17;;;;;;;47.60;22.98;;;;;;;;;;5034332;28;20064;-81
2023/04/19 00:04:43;;;;;;;59.80;23.40;;;;;;;;;;5034270;28;20026;-81
2023/04/19 00:07:09;;;;;;;118.68;51.30;;;;;;;;;;5026715;28;20135;-81
2023/04/19 00:09:34;;;;;;;95.07;43.17;;;;;;;;;;5054109;28;20033;-81
2023/04/19 00:12:00;;;;;;;94.47;40.63;;;;;;;;;;5052752;28;20036;-82
2023/04/19 00:14:25;;;;;;;82.95;36.33;;;;;;;;;;5053857;28;20033;-82
2023/04/19 00:16:51;;;;;;;70.30;30.85;;;;;;;;;;5037063;28;20036;-80
2023/04/19 00:19:16;;;;;;;59.70;28.48;;;;;;;;;;5037274;28;20471;-81
2023/04/19 00:21:42;;;;;;;65.20;27.48;;;;;;;;;;5037157;28;20036;-80
2023/04/19 00:24:07;;;;;;;62.05;27.52;;;;;;;;;;5020889;28;20580;-81
2023/04/19 00:26:32;;;;;;;57.53;25.58;;;;;;;;;;5037014;28;20029;-79
2023/04/19 00:28:59;;;;;;;67.93;26.75;;;;;;;;;;5053757;28;20167;-80
2023/04/19 00:31:24;;;;;;;57.65;27.20;;;;;;;;;;5054944;28;20174;-80
2023/04/19 00:33:50;;;;;;;63.70;25.55;;;;;;;;;;5036978;28;20099;-82
2023/04/19 00:36:15;;;;;;;56.38;25.13;;;;;;;;;;5053896;28;20420;-81
2023/04/19 00:38:41;;;;;;;58.00;24.25;;;;;;;;;;5020697;28;20083;-81
2023/04/19 00:41:06;;;;;;;58.58;25.05;;;;;;;;;;5036972;28;20036;-81
2023/04/19 00:43:31;;;;;;;55.90;23.77;;;;;;;;;;5054679;28;20032;-80
2023/04/19 00:45:57;;;;;;;62.67;26.65;;;;;;;;;;5037145;28;20029;-80
2023/04/19 00:48:22;;;;;;;62.75;25.40;;;;;;;;;;5020509;28;20033;-81
2023/04/19 00:50:48;;;;;;;62.42;26.67;;;;;;;;;;5036945;28;20365;-81
2023/04/19 00:53:13;;;;;;;68.63;28.08;;;;;;;;;;5046928;28;20022;-82
2023/04/19 00:55:39;;;;;;;67.35;27.88;;;;;;;;;;5016651;28;20033;-81
2023/04/19 00:58:06;;;;;;;69.40;27.77;;;;;;;;;;5017277;28;20026;-81
2023/04/19 01:00:31;;;;;;;60.85;27.00;;;;;;;;;;5000424;28;20042;-81
2023/04/19 01:02:57;;;;;;;69.07;26.60;;;;;;;;;;5016626;28;20454;-78
2023/04/19 01:05:23;;;;;;;67.82;27.95;;;;;;;;;;5016764;28;20033;-80
2023/04/19 01:07:49;;;;;;;61.80;26.15;;;;;;;;;;5031151;28;20059;-81
2023/04/19 01:10:14;;;;;;;77.63;27.83;;;;;;;;;;5052682;28;20106;-82
2023/04/19 01:12:39;;;;;;;66.35;27.23;;;;;;;;;;5052986;28;20105;-82
2023/04/19 01:15:05;;;;;;;73.03;27.42;;;;;;;;;;5036286;28;20508;-82
2023/04/19 01:17:31;;;;;;;67.95;28.17;;;;;;;;;;5052760;28;20037;-82
2023/04/19 01:20:06;;;;;;;64.35;27.33;;;;;;;;;;5052857;28;20025;-81
2023/04/19 01:22:32;;;;;;;57.35;26.92;;;;;;;;;;5053040;28;20365;-81
2023/04/19 01:24:57;;;;;;;60.42;25.05;;;;;;;;;;5052297;28;20033;-82
2023/04/19 01:27:23;;;;;;;64.97;25.63;;;;;;;;;;5036430;28;20047;-82
2023/04/19 01:29:48;;;;;;;63.03;25.05;;;;;;;;;;5053273;28;20040;-81
2023/04/19 01:32:14;;;;;;;64.63;24.60;;;;;;;;;;5053010;28;20029;-82
2023/04/19 01:34:40;;;;;;;60.70;24.38;;;;;;;;;;5053261;28;20036;-82
2023/04/19 01:37:06;;;;;;;59.40;25.48;;;;;;;;;;5052411;28;20123;-81
2023/04/19 01:39:31;;;;;;;63.92;25.00;;;;;;;;;;5035883;28;20526;-82
2023/04/19 01:41:57;;;;;;;57.63;23.95;;;;;;;;;;5052832;28;20416;-81
2023/04/19 01:44:23;;;;;;;61.92;23.45;;;;;;;;;;5052557;28;20407;-82
2023/04/19 01:46:48;;;;;;;60.10;24.42;;;;;;;;;;5053958;28;20037;-82
2023/04/19 01:49:14;;;;;;;70.75;25.55;;;;;;;;;;5052812;28;20029;-82
2023/04/19 01:51:40;;;;;;;63.90;25.48;;;;;;;;;;5052547;28;20025;-82
2023/04/19 01:54:05;;;;;;;56.67;25.45;;;;;;;;;;5035798;28;20370;-81
2023/04/19 01:56:31;;;;;;;60.45;24.65;;;;;;;;;;5049762;28;20033;-81
2023/04/19 01:58:57;;;;;;;52.70;24.48;;;;;;;;;;5052407;28;20025;-82
2023/04/19 02:01:22;;;;;;;59.38;24.60;;;;;;;;;;5052785;28;20025;-82
2023/04/19 02:03:48;;;;;;;56.95;24.35;;;;;;;;;;5052581;28;20032;-82
2023/04/19 02:06:14;;;;;;;57.35;23.77;;;;;;;;;;5035440;28;20044;-81
2023/04/19 02:08:40;;;;;;;56.60;25.98;;;;;;;;;;5019358;28;20361;-81
2023/04/19 02:11:09;;;;;;;63.80;24.55;;;;;;;;;;5035728;28;20040;-81
2023/04/19 02:13:35;;;;;;;53.92;25.25;;;;;;;;;;5019492;28;20179;-80
2023/04/19 02:16:01;;;;;;;55.10;24.77;;;;;;;;;;5052149;28;20422;-81
2023/04/19 02:18:28;;;;;;;60.30;25.90;;;;;;;;;;5052438;28;20072;-81
2023/04/19 02:20:55;;;;;;;64.65;25.00;;;;;;;;;;5052510;28;20391;-82
2023/04/19 02:23:21;;;;;;;60.05;25.40;;;;;;;;;;5052022;28;20468;-82
2023/04/19 02:25:46;;;;;;;58.88;25.00;;;;;;;;;;5052042;28;20040;-83
2023/04/19 02:28:11;;;;;;;65.03;26.08;;;;;;;;;;5035576;28;20477;-82
2023/04/19 02:30:37;;;;;;;66.00;26.48;;;;;;;;;;5052144;28;20035;-82
2023/04/19 02:33:02;;;;;;;59.05;25.88;;;;;;;;;;5053234;28;20025;-82
2023/04/19 02:35:28;;;;;;;65.30;26.92;;;;;;;;;;5053784;28;20029;-80
2023/04/19 02:37:53;;;;;;;66.55;28.23;;;;;;;;;;5055766;28;20063;-81
2023/04/19 02:40:21;;;;;;;75.28;27.63;;;;;;;;;;5055967;28;20025;-81
2023/04/19 02:42:47;;;;;;;60.28;27.95;;;;;;;;;;5055800;28;20123;-81
2023/04/19 02:45:12;;;;;;;68.03;28.58;;;;;;;;;;5038927;28;20033;-81
2023/04/19 02:47:37;;;;;;;70.75;28.20;;;;;;;;;;5038999;28;20040;-81
2023/04/19 02:50:03;;;;;;;78.50;30.30;;;;;;;;;;5038825;28;20037;-80
2023/04/19 02:52:29;;;;;;;69.80;29.20;;;;;;;;;;5022439;28;20029;-81
2023/04/19 02:54:54;;;;;;;60.90;28.98;;;;;;;;;;5038729;28;20432;-81
2023/04/19 02:57:19;;;;;;;69.20;29.10;;;;;;;;;;5050420;28;20021;-80
2023/04/19 02:59:45;;;;;;;65.45;27.80;;;;;;;;;;5038786;28;20108;-82
2023/04/19 03:02:10;;;;;;;66.22;28.25;;;;;;;;;;5055593;28;20033;-82
2023/04/19 03:04:36;;;;;;;61.55;27.45;;;;;;;;;;5056462;28;20052;-82
2023/04/19 03:07:01;;;;;;;70.05;27.75;;;;;;;;;;5021636;28;20413;-80
2023/04/19 03:09:27;;;;;;;64.53;27.00;;;;;;;;;;5055299;28;20032;-81
2023/04/19 03:11:52;;;;;;;62.63;27.90;;;;;;;;;;5055174;28;20026;-81
2023/04/19 03:14:18;;;;;;;73.78;28.92;;;;;;;;;;5055237;28;20035;-81
2023/04/19 03:16:43;;;;;;;74.30;28.88;;;;;;;;;;5039196;28;20036;-81
2023/04/19 03:19:08;;;;;;;68.40;28.95;;;;;;;;;;5021858;28;20033;-82
2023/04/19 03:21:34;;;;;;;71.90;28.30;;;;;;;;;;5038188;28;20052;-82
2023/04/19 03:24:00;;;;;;;75.55;29.63;;;;;;;;;;5055037;28;20465;-82
2023/04/19 03:26:25;;;;;;;74.40;28.88;;;;;;;;;;5022359;28;20029;-81
2023/04/19 03:28:51;;;;;;;69.68;30.52;;;;;;;;;;5054965;28;20036;-82
2023/04/19 03:31:17;;;;;;;75.82;30.52;;;;;;;;;;5038619;28;20036;-80
2023/04/19 03:33:42;;;;;;;73.47;29.15;;;;;;;;;;5021798;28;20069;-81
2023/04/19 03:36:08;;;;;;;79.32;30.35;;;;;;;;;;5054639;28;20496;-81
2023/04/19 03:38:33;;;;;;;106.22;38.75;;;;;;;;;;5054727;28;20028;-81
2023/04/19 03:40:59;;;;;;;122.05;43.45;;;;;;;;;;5054692;28;20021;-81
2023/04/19 03:43:24;;;;;;;134.90;46.35;;;;;;;;;;5021470;28;20037;-81
2023/04/19 03:45:50;;;;;;;131.63;46.58;;;;;;;;;;5038164;28;20029;-81
2023/04/19 03:48:16;;;;;;;120.45;41.88;;;;;;;;;;5054191;28;20047;-83
2023/04/19 03:50:41;;;;;;;138.50;46.30;;;;;;;;;;5038023;28;20029;-80
2023/04/19 03:53:07;;;;;;;123.95;44.92;;;;;;;;;;5037721;28;20357;-80
2023/04/19 03:55:32;;;;;;;97.50;38.58;;;;;;;;;;5038111;28;20060;-80
2023/04/19 03:57:57;;;;;;;100.70;36.65;;;;;;;;;;5054302;28;20099;-80
2023/04/19 04:00:23;;;;;;;95.53;35.80;;;;;;;;;;5040002;28;20450;-80
2023/04/19 04:02:48;;;;;;;93.20;35.08;;;;;;;;;;5034260;28;20029;-79
2023/04/19 04:05:14;;;;;;;95.40;37.15;;;;;;;;;;5034017;28;20032;-80
2023/04/19 04:07:39;;;;;;;101.18;39.75;;;;;;;;;;5001343;28;20095;-81
2023/04/19 04:10:05;;;;;;;111.35;41.40;;;;;;;;;;5034151;28;20490;-81
2023/04/19 04:12:31;;;;;;;99.22;40.70;;;;;;;;;;5034109;28;20036;-82
2023/04/19 04:14:56;;;;;;;98.45;40.83;;;;;;;;;;5017661;28;20120;-82
2023/04/19 04:17:23;;;;;;;92.82;41.13;;;;;;;;;;5033859;28;20029;-81
2023/04/19 04:19:48;;;;;;;101.88;40.38;;;;;;;;;;5017497;28;20024;-82
2023/04/19 04:22:14;;;;;;;96.07;39.15;;;;;;;;;;5035150;28;20303;-82
2023/04/19 04:24:40;;;;;;;90.22;36.13;;;;;;;;;;5017519;28;20021;-82
2023/04/19 04:27:09;;;;;;;99.78;38.45;;;;;;;;;;5017251;28;20034;-82
2023/04/19 04:29:36;;;;;;;107.13;38.25;;;;;;;;;;5017373;28;20022;-84
2023/04/19 04:32:02;;;;;;;92.82;38.35;;;;;;;;;;5033946;28;20087;-84
2023/04/19 04:34:28;;;;;;;112.43;43.90;;;;;;;;;;5034591;28;20029;-85
2023/04/19 04:36:53;;;;;;;110.22;44.30;;;;;;;;;;5026177;28;20029;-85
2023/04/19 04:39:19;;;;;;;111.70;44.58;;;;;;;;;;5031318;28;20029;-84
2023/04/19 04:41:46;;;;;;;102.25;43.42;;;;;;;;;;5044916;28;20028;-85
2023/04/19 04:44:14;;;;;;;118.63;45.65;;;;;;;;;;5045200;28;20029;-84
2023/04/19 04:46:39;;;;;;;107.45;43.80;;;;;;;;;;5028257;28;20037;-84
2023/04/19 04:49:06;;;;;;;107.35;42.92;;;;;;;;;;5037530;28;20485;-86
2023/04/19 04:51:31;;;;;;;96.80;40.78;;;;;;;;;;5004743;28;20461;-85
2023/04/19 04:54:15;;;;;;;92.82;39.40;;;;;;;;;;5046848;28;20079;-84
2023/04/19 04:56:42;;;;;;;95.15;38.70;;;;;;;;;;5039598;28;20079;-84
2023/04/19 05:00:04;;;;;;;103.00;40.72;;;;;;;;;;5018513;28;20076;-83
2023/04/19 05:02:30;;;;;;;92.25;39.00;;;;;;;;;;5043971;28;20079;-81
2023/04/19 05:04:56;;;;;;;103.82;39.97;;;;;;;;;;5017768;28;20062;-84
2023/04/19 05:07:24;;;;;;;90.28;38.45;;;;;;;;;;5056711;28;20052;-84
2023/04/19 05:09:56;;;;;;;86.35;37.13;;;;;;;;;;5059859;28;20025;-84
2023/04/19 05:12:44;;;;;;;;;;;;;;;;;;;;;
2023/04/19 05:15:13;;;;;;;78.82;35.70;;;;;;;;;;5030590;28;20093;-85
2023/04/19 05:17:38;;;;;;;89.18;36.08;;;;;;;;;;5017421;28;20079;-84
2023/04/19 05:20:05;;;;;;;101.95;36.25;;;;;;;;;;5015545;28;20033;-80
2023/04/19 05:22:30;;;;;;;82.97;36.45;;;;;;;;;;5026131;28;20029;-81
2023/04/19 05:24:55;;;;;;;81.95;35.47;;;;;;;;;;5025958;28;20390;-80
2023/04/19 05:27:27;;;;;;;80.63;34.88;;;;;;;;;;5010800;28;20049;-80
2023/04/19 05:29:52;;;;;;;87.80;38.45;;;;;;;;;;5012584;28;20099;-80
2023/04/19 05:32:18;;;;;;;90.68;38.58;;;;;;;;;;4993388;28;20037;-81
2023/04/19 05:34:43;;;;;;;87.65;36.92;;;;;;;;;;5019643;28;20046;-80
2023/04/19 05:37:11;;;;;;;92.88;37.72;;;;;;;;;;5017291;28;20033;-80
2023/04/19 05:39:36;;;;;;;87.68;37.80;;;;;;;;;;5015784;28;20538;-80
2023/04/19 05:42:02;;;;;;;85.57;35.17;;;;;;;;;;5014536;28;20080;-80
2023/04/19 05:44:28;;;;;;;89.53;34.83;;;;;;;;;;5034556;28;20033;-81
2023/04/19 05:46:53;;;;;;;87.63;33.45;;;;;;;;;;5008904;28;20049;-78
2023/04/19 05:49:18;;;;;;;84.50;34.00;;;;;;;;;;5012728;28;20032;-80
2023/04/19 05:51:46;;;;;;;73.03;33.50;;;;;;;;;;5020368;28;20440;-81
2023/04/19 05:54:13;;;;;;;90.25;37.70;;;;;;;;;;5045369;28;20179;-80
2023/04/19 05:56:39;;;;;;;86.95;35.72;;;;;;;;;;5033950;28;20060;-80
2023/04/19 05:59:05;;;;;;;74.95;31.15;;;;;;;;;;5038784;28;20049;-79
2023/04/19 06:01:31;;;;;;;71.22;29.20;;;;;;;;;;5044111;28;20021;-78
2023/04/19 06:03:56;;;;;;;71.38;28.00;;;;;;;;;;5046055;28;20182;-80
2023/04/19 06:06:22;;;;;;;70.10;29.48;;;;;;;;;;5046304;28;20068;-78
2023/04/19 06:08:49;;;;;;;68.20;29.15;;;;;;;;;;5067523;28;20539;-80
2023/04/19 06:11:16;;;;;;;71.68;29.60;;;;;;;;;;5056530;28;20123;-83
2023/04/19 06:13:43;;;;;;;67.05;28.33;;;;;;;;;;5055356;28;20112;-81
2023/04/19 06:16:11;;;;;;;68.82;27.92;;;;;;;;;;5029004;28;20036;-81
2023/04/19 06:18:37;;;;;;;66.20;27.77;;;;;;;;;;5031821;28;20472;-80
2023/04/19 06:21:05;;;;;;;67.00;29.73;;;;;;;;;;5044075;28;20447;-80
2023/04/19 06:23:30;;;;;;;68.03;27.67;;;;;;;;;;5039157;28;20399;-80
2023/04/19 06:25:59;;;;;;;73.38;30.33;;;;;;;;;;5050634;28;20037;-82
2023/04/19 06:28:25;;;;;;;74.77;28.97;;;;;;;;;;5043692;28;20036;-81
2023/04/19 06:30:54;;;;;;;66.50;27.35;;;;;;;;;;5019912;28;20051;-81
2023/04/19 06:33:20;;;;;;;67.65;27.13;;;;;;;;;;5025276;28;20017;-81
2023/04/19 06:35:45;;;;;;;70.82;26.80;;;;;;;;;;5039024;28;20025;-81
2023/04/19 06:38:17;;;;;;;62.63;25.65;;;;;;;;;;5042895;28;20083;-80
2023/04/19 06:41:04;;;;;;;62.30;22.30;;;;;;;;;;5045769;28;20028;-80
2023/04/19 06:43:29;;;;;;;59.00;21.23;;;;;;;;;;5073824;28;20119;-80
2023/04/19 06:46:35;;;;;;;56.60;21.55;;;;;;;;;;5077103;28;20338;-82
2023/04/19 06:49:07;;;;;;;46.88;20.95;;;;;;;;;;5028096;28;20032;-77
2023/04/19 06:57:50;;;;;;;50.40;19.42;;;;;;;;;;5739323;22;20068;-82
2023/04/19 07:00:16;;;;;;;45.17;18.75;;;;;;;;;;5068623;28;20115;-79
2023/04/19 07:02:49;;;;;;;48.55;20.17;;;;;;;;;;5067989;28;20056;-81
2023/04/19 07:05:15;;;;;;;48.33;19.40;;;;;;;;;;5061246;28;20025;-80
2023/04/19 07:07:41;;;;;;;46.90;19.67;;;;;;;;;;5065320;28;20461;-81
2023/04/19 07:12:56;;;;;;;57.65;27.40;;;;;;;;;;5042715;28;20044;-80
2023/04/19 07:15:22;;;;;;;48.80;19.58;;;;;;;;;;5037497;28;20037;-79
2023/04/19 07:17:50;;;;;;;49.50;19.13;;;;;;;;;;5053791;28;20541;-82
2023/04/19 07:20:16;;;;;;;43.97;17.13;;;;;;;;;;5040502;28;20409;-80
2023/04/19 07:22:44;;;;;;;38.35;16.48;;;;;;;;;;5061506;28;20029;-80
2023/04/19 07:25:10;;;;;;;40.35;16.92;;;;;;;;;;5027836;28;20040;-80
2023/04/19 07:27:35;;;;;;;47.97;20.08;;;;;;;;;;5067869;28;20075;-79
2023/04/19 07:30:01;;;;;;;55.70;20.23;;;;;;;;;;5037990;28;20059;-78
2023/04/19 07:32:50;;;;;;;61.50;20.20;;;;;;;;;;5061608;28;20028;-81
2023/04/19 07:35:15;;;;;;;48.80;20.33;;;;;;;;;;5071224;28;20090;-81
2023/04/19 07:37:41;;;;;;;43.22;18.60;;;;;;;;;;5072688;28;20024;-80
2023/04/19 07:40:07;;;;;;;45.63;17.45;;;;;;;;;;5075139;28;20093;-80
2023/04/19 07:42:32;;;;;;;41.17;18.05;;;;;;;;;;5076071;28;20166;-81
2023/04/19 07:44:59;;;;;;;42.83;17.40;;;;;;;;;;5034079;28;20029;-81
2023/04/19 07:47:27;;;;;;;46.45;17.38;;;;;;;;;;5061093;28;20515;-79
2023/04/19 07:49:55;;;;;;;42.40;17.38;;;;;;;;;;5065255;28;20028;-79
2023/04/19 07:52:20;;;;;;;47.13;17.38;;;;;;;;;;5038136;28;20040;-79
2023/04/19 07:54:49;;;;;;;37.63;16.35;;;;;;;;;;5048159;28;20025;-80
2023/04/19 07:57:15;;;;;;;52.63;17.33;;;;;;;;;;5055295;28;20051;-82
2023/04/19 07:59:40;;;;;;;38.00;16.83;;;;;;;;;;5057519;28;20033;-79
2023/04/19 08:02:06;;;;;;;43.15;17.80;;;;;;;;;;5024698;28;20044;-81
2023/04/19 08:04:32;;;;;;;30.90;14.80;;;;;;;;;;5061317;28;20028;-79
2023/04/19 08:06:58;;;;;;;37.42;15.60;;;;;;;;;;5059089;28;20304;-80
2023/04/19 08:09:24;;;;;;;27.85;13.02;;;;;;;;;;5050366;28;20028;-79
2023/04/19 08:11:49;;;;;;;31.15;13.95;;;;;;;;;;5042730;28;20028;-78
2023/04/19 08:14:18;;;;;;;29.17;13.82;;;;;;;;;;5062577;28;20788;-80
2023/04/19 08:16:44;;;;;;;28.48;13.98;;;;;;;;;;5068166;28;20130;-79
2023/04/19 08:19:09;;;;;;;33.15;14.60;;;;;;;;;;5057863;28;20216;-81
2023/04/19 08:21:38;;;;;;;35.53;15.23;;;;;;;;;;5057913;28;20036;-79
2023/04/19 08:24:04;;;;;;;28.92;14.15;;;;;;;;;;5053209;28;20112;-80
2023/04/19 08:26:30;;;;;;;28.77;15.07;;;;;;;;;;5067323;28;20522;-80
2023/04/19 08:28:55;;;;;;;31.40;15.02;;;;;;;;;;5071642;28;20024;-80
2023/04/19 08:31:21;;;;;;;37.55;15.27;;;;;;;;;;5072459;28;20016;-80
2023/04/19 08:33:47;;;;;;;32.33;15.68;;;;;;;;;;5055372;28;20024;-79
2023/04/19 08:36:13;;;;;;;34.28;15.32;;;;;;;;;;5074691;28;20081;-81
2023/04/19 08:38:48;;;;;;;37.20;15.48;;;;;;;;;;5038939;28;20024;-79
2023/04/19 08:41:13;;;;;;;34.30;15.38;;;;;;;;;;5074233;28;20115;-80
2023/04/19 08:43:39;;;;;;;43.22;16.48;;;;;;;;;;5076044;28;20051;-81
2023/04/19 08:46:45;;;;;;;37.63;15.70;;;;;;;;;;5076484;28;20029;-81
2023/04/19 08:49:11;;;;;;;32.00;15.10;;;;;;;;;;5062382;28;20025;-81
2023/04/19 08:51:42;;;;;;;48.92;21.00;;;;;;;;;;5081574;28;20025;-81
2023/04/19 08:54:25;;;;;;;54.30;16.80;;;;;;;;;;5063812;28;20102;-81
2023/04/19 08:59:25;;;;;;;34.47;16.13;;;;;;;;;;5099889;22;20060;-78
2023/04/19 09:01:59;;;;;;;36.05;17.35;;;;;;;;;;5060516;28;20033;-80
2023/04/19 09:04:27;;;;;;;43.03;15.48;;;;;;;;;;5062264;28;20029;-79
2023/04/19 09:06:53;;;;;;;33.25;15.38;;;;;;;;;;5038616;28;20025;-80
2023/04/19 09:09:31;;;;;;;32.60;14.70;;;;;;;;;;5064860;28;20028;-80
2023/04/19 09:11:58;;;;;;;35.10;15.65;;;;;;;;;;5064357;28;20036;-79
2023/04/19 09:14:35;;;;;;;30.80;15.32;;;;;;;;;;5062246;28;20052;-79
2023/04/19 09:17:13;;;;;;;36.65;14.02;;;;;;;;;;5036916;28;20032;-78
2023/04/19 09:19:48;;;;;;;29.30;13.40;;;;;;;;;;5048226;28;20055;-80
2023/04/19 09:22:13;;;;;;;28.95;14.30;;;;;;;;;;5054368;28;20032;-79
2023/04/19 09:24:39;;;;;;;33.20;15.45;;;;;;;;;;5059997;28;20030;-79
2023/04/19 09:27:05;;;;;;;31.30;13.63;;;;;;;;;;5038033;28;20048;-80
2023/04/19 09:29:39;;;;;;;27.45;13.10;;;;;;;;;;5066078;28;20370;-78
2023/04/19 09:32:08;;;;;;;30.48;13.40;;;;;;;;;;5064150;28;20113;-81
2023/04/19 09:34:39;;;;;;;29.98;13.77;;;;;;;;;;5063059;28;20043;-80
2023/04/19 09:37:14;;;;;;;34.53;15.85;;;;;;;;;;5045072;28;20120;-78
2023/04/19 09:39:40;;;;;;;33.60;15.32;;;;;;;;;;5065099;28;20038;-79
2023/04/19 09:42:06;;;;;;;34.88;14.20;;;;;;;;;;5061897;28;20138;-79
2023/04/19 09:44:33;;;;;;;36.10;15.70;;;;;;;;;;5072599;28;20425;-81
2023/04/19 09:46:59;;;;;;;35.65;15.43;;;;;;;;;;5032268;28;20332;-80
2023/04/19 09:49:26;;;;;;;34.28;14.98;;;;;;;;;;5071304;28;20132;-79
2023/04/19 09:52:26;;;;;;;32.78;14.05;;;;;;;;;;5046428;28;20064;-78
2023/04/19 09:55:29;;;;;;;40.38;14.32;;;;;;;;;;5046139;28;20037;-81
2023/04/19 09:58:21;;;;;;;27.17;13.95;;;;;;;;;;5052495;28;20680;-77
2023/04/19 10:01:25;;;;;;;32.97;13.98;;;;;;;;;;4985958;28;20052;-81
2023/04/19 10:03:51;;;;;;;28.15;13.93;;;;;;;;;;4992803;28;20570;-81
2023/04/19 10:06:17;;;;;;;26.20;14.63;;;;;;;;;;5028641;28;20075;-78
2023/04/19 10:08:44;;;;;;;27.98;12.88;;;;;;;;;;5065252;28;20118;-78
2023/04/19 10:11:13;;;;;;;30.50;13.88;;;;;;;;;;5059838;28;20024;-80
2023/04/19 10:13:39;;;;;;;30.88;14.32;;;;;;;;;;5059285;28;20032;-77
2023/04/19 10:16:05;;;;;;;31.48;14.05;;;;;;;;;;5074169;28;20059;-80
2023/04/19 10:18:31;;;;;;;32.63;13.90;;;;;;;;;;5056037;28;20036;-81
2023/04/19 10:21:02;;;;;;;30.23;13.32;;;;;;;;;;5073587;28;20025;-80
2023/04/19 10:23:28;;;;;;;41.80;16.77;;;;;;;;;;5072439;28;20032;-81
2023/04/19 10:26:05;;;;;;;56.20;21.27;;;;;;;;;;5063699;28;20033;-80
2023/04/19 10:28:30;;;;;;;34.92;16.00;;;;;;;;;;5056391;28;20424;-80
2023/04/19 10:31:00;;;;;;;37.13;16.42;;;;;;;;;;5072557;28;20021;-78
2023/04/19 10:33:30;;;;;;;;;;;;;;;;;;5043064;28;20091;-77
2023/04/19 10:35:59;;;;;;;36.80;16.85;;;;;;;;;;5068413;28;19946;-80
2023/04/19 10:38:54;;;;;;;47.33;19.23;;;;;;;;;;5035782;28;20036;-79
2023/04/19 10:41:20;;;;;;;49.53;20.05;;;;;;;;;;5052250;28;20073;-83
2023/04/19 10:43:55;;;;;;;42.67;19.00;;;;;;;;;;5059705;28;20136;-81
2023/04/19 10:46:20;;;;;;;45.80;20.30;;;;;;;;;;5075026;28;20064;-83
2023/04/19 10:48:59;;;;;;;60.28;24.25;;;;;;;;;;5074043;28;20043;-80
2023/04/19 10:51:35;;;;;;;54.88;22.30;;;;;;;;;;5069299;28;20043;-82
2023/04/19 10:54:25;;;;;;;43.33;20.95;;;;;;;;;;5040621;28;20024;-82
2023/04/19 10:57:04;;;;;;;43.67;19.20;;;;;;;;;;5071993;28;20032;-81
2023/04/19 10:59:31;;;;;;;37.88;17.95;;;;;;;;;;5075909;28;20033;-81
2023/04/19 11:01:59;;;;;;;40.10;18.50;;;;;;;;;;5076835;28;20092;-81
2023/04/19 11:04:30;;;;;;;43.00;18.38;;;;;;;;;;5078625;28;20040;-82
2023/04/19 11:07:00;;;;;;;42.42;18.70;;;;;;;;;;5080648;28;20059;-83
2023/04/19 11:09:34;;;;;;;45.22;18.17;;;;;;;;;;5063258;28;20028;-83
2023/04/19 11:12:07;;;;;;;40.38;19.23;;;;;;;;;;5077324;28;20024;-83
2023/04/19 11:14:36;;;;;;;47.00;19.08;;;;;;;;;;5061710;28;20039;-83
2023/04/19 11:17:11;;;;;;;40.00;18.27;;;;;;;;;;5060058;28;20059;-81
2023/04/19 11:19:37;;;;;;;39.00;19.75;;;;;;;;;;5042973;28;20029;-84
2023/04/19 11:22:03;;;;;;;39.28;17.88;;;;;;;;;;5043539;28;20076;-84
2023/04/19 11:24:28;;;;;;;46.92;20.45;;;;;;;;;;5057352;28;20032;-83
2023/04/19 11:26:57;;;;;;;51.60;18.15;;;;;;;;;;5066532;28;20029;-84
2023/04/19 11:29:23;;;;;;;36.53;16.70;;;;;;;;;;5044778;28;20082;-83
2023/04/19 11:31:51;;;;;;;46.15;19.48;;;;;;;;;;5046268;28;20111;-82
2023/04/19 11:34:18;;;;;;;50.72;19.42;;;;;;;;;;5059761;28;20117;-82
2023/04/19 11:36:48;;;;;;;46.08;18.45;;;;;;;;;;5043035;28;20035;-85
2023/04/19 11:39:13;;;;;;;42.65;18.60;;;;;;;;;;5075287;28;20025;-84
2023/04/19 11:41:39;;;;;;;44.45;18.05;;;;;;;;;;5077842;28;20183;-84
2023/04/19 11:44:12;;;;;;;45.72;18.58;;;;;;;;;;5063833;28;20025;-83
2023/04/19 11:46:38;;;;;;;45.63;19.25;;;;;;;;;;5062902;28;20074;-82
2023/04/19 11:49:03;;;;;;;40.13;18.38;;;;;;;;;;5062586;28;20020;-83
2023/04/19 11:51:30;;;;;;;45.05;18.40;;;;;;;;;;5062648;28;20025;-82
2023/04/19 11:53:55;;;;;;;86.35;42.17;;;;;;;;;;5078344;28;20054;-83
2023/04/19 11:56:21;;;;;;;46.63;20.20;;;;;;;;;;5077931;28;20032;-83
2023/04/19 11:58:47;;;;;;;44.90;19.77;;;;;;;;;;5078002;28;20454;-84
2023/04/19 12:01:14;;;;;;;49.90;21.00;;;;;;;;;;5079286;28;20028;-84
2023/04/19 12:03:47;;;;;;;44.92;20.20;;;;;;;;;;5081336;28;20032;-84
2023/04/19 12:06:17;;;;;;;45.92;20.63;;;;;;;;;;5062172;28;20040;-82
2023/04/19 12:08:47;;;;;;;46.55;20.83;;;;;;;;;;5064309;28;20032;-84
2023/04/19 12:11:13;;;;;;;57.35;21.17;;;;;;;;;;5048270;28;20056;-83
2023/04/19 12:13:39;;;;;;;47.45;21.98;;;;;;;;;;5064893;28;20050;-84
2023/04/19 12:16:06;;;;;;;45.55;20.98;;;;;;;;;;5081862;28;20033;-83
2023/04/19 12:18:48;;;;;;;49.95;21.23;;;;;;;;;;5047906;28;20060;-82
2023/04/19 12:21:30;;;;;;;45.47;20.70;;;;;;;;;;5061632;28;20523;-83
2023/04/19 12:23:59;;;;;;;45.55;19.95;;;;;;;;;;5062447;28;20322;-84
2023/04/19 12:26:34;;;;;;;45.47;20.50;;;;;;;;;;5062541;28;20028;-85
2023/04/19 12:29:01;;;;;;;45.30;21.15;;;;;;;;;;5063463;28;20123;-83
2023/04/19 12:31:26;;;;;;;46.40;20.50;;;;;;;;;;5063936;28;20094;-84
2023/04/19 12:33:52;;;;;;;47.90;20.13;;;;;;;;;;5047353;28;20130;-84
2023/04/19 12:36:18;;;;;;;49.30;20.15;;;;;;;;;;5062714;28;20020;-84
2023/04/19 12:38:43;;;;;;;53.45;19.08;;;;;;;;;;5063210;28;20028;-85
2023/04/19 12:41:09;;;;;;;46.85;20.30;;;;;;;;;;5046432;28;20115;-84
2023/04/19 12:43:34;;;;;;;46.35;18.48;;;;;;;;;;5045080;28;20024;-83
2023/04/19 12:46:00;;;;;;;46.72;20.73;;;;;;;;;;5061748;28;20054;-84
2023/04/19 12:48:26;;;;;;;46.72;19.02;;;;;;;;;;5078743;28;20036;-83
2023/04/19 12:50:52;;;;;;;42.35;19.13;;;;;;;;;;5061806;28;20342;-84
2023/04/19 12:53:17;;;;;;;53.17;20.30;;;;;;;;;;5058591;28;20064;-82
2023/04/19 12:55:46;;;;;;;45.03;19.10;;;;;;;;;;5056676;28;20033;-83
2023/04/19 12:58:15;;;;;;;41.30;16.88;;;;;;;;;;5057245;28;20048;-85
2023/04/19 13:00:41;;;;;;;47.53;17.30;;;;;;;;;;5056684;28;20048;-85
2023/04/19 13:03:31;;;;;;;40.33;17.05;;;;;;;;;;5053916;28;20094;-85
2023/04/19 13:06:03;;;;;;;44.25;17.52;;;;;;;;;;5055419;28;20534;-85
2023/04/19 13:08:28;;;;;;;158.07;61.80;;;;;;;;;;5053202;28;20040;-85
2023/04/19 13:11:00;;;;;;;52.92;24.67;;;;;;;;;;5053519;28;20108;-85
2023/04/19 13:13:25;;;;;;;41.15;19.92;;;;;;;;;;5021040;28;20035;-85
2023/04/19 13:15:51;;;;;;;103.60;61.90;;;;;;;;;;5019896;28;20127;-86
2023/04/19 13:18:22;;;;;;;100.22;52.38;;;;;;;;;;5036540;28;20036;-85
2023/04/19 13:20:49;;;;;;;102.28;51.30;;;;;;;;;;5053098;28;20163;-85
2023/04/19 13:23:15;;;;;;;40.55;21.05;;;;;;;;;;5034911;28;20445;-85
2023/04/19 13:25:40;;;;;;;39.38;20.48;;;;;;;;;;5052860;28;20025;-85
2023/04/19 13:28:06;;;;;;;42.92;18.52;;;;;;;;;;5035953;28;20028;-86
2023/04/19 13:30:31;;;;;;;37.72;17.90;;;;;;;;;;5019702;28;20370;-85
2023/04/19 13:32:57;;;;;;;48.28;19.52;;;;;;;;;;5019925;28;20056;-85
2023/04/19 13:35:23;;;;;;;38.53;18.70;;;;;;;;;;5052249;28;20046;-84
2023/04/19 13:37:50;;;;;;;40.10;17.77;;;;;;;;;;5036249;28;20516;-85
2023/04/19 13:40:15;;;;;;;38.00;18.20;;;;;;;;;;5052704;28;20024;-85
2023/04/19 13:42:41;;;;;;;31.13;15.75;;;;;;;;;;5036062;28;20025;-84
2023/04/19 13:45:09;;;;;;;37.40;17.10;;;;;;;;;;5052506;28;20056;-86
2023/04/19 13:47:34;;;;;;;30.92;15.25;;;;;;;;;;5052675;28;20037;-86
2023/04/19 13:50:00;;;;;;;46.05;18.38;;;;;;;;;;5019692;28;20032;-85
2023/04/19 13:52:25;;;;;;;34.28;15.75;;;;;;;;;;5052338;28;20378;-84
2023/04/19 13:54:51;;;;;;;32.75;16.52;;;;;;;;;;5019951;28;20187;-83
2023/04/19 13:57:16;;;;;;;35.30;15.05;;;;;;;;;;5019654;28;20033;-82
2023/04/19 13:59:42;;;;;;;33.35;15.70;;;;;;;;;;5035502;28;20040;-83
2023/04/19 14:02:07;;;;;;;34.28;16.70;;;;;;;;;;5036001;28;20025;-83
2023/04/19 14:04:32;;;;;;;34.20;16.80;;;;;;;;;;5035990;28;20028;-84
2023/04/19 14:06:58;;;;;;;30.80;16.73;;;;;;;;;;5035704;28;20431;-86
2023/04/19 14:09:24;;;;;;;42.97;17.58;;;;;;;;;;5019142;28;20037;-84
2023/04/19 14:11:50;;;;;;;42.33;17.38;;;;;;;;;;5036138;28;20484;-85
2023/04/19 14:14:15;;;;;;;41.08;18.73;;;;;;;;;;5053214;28;20029;-85
2023/04/19 14:16:41;;;;;;;41.25;17.98;;;;;;;;;;5052736;28;20024;-85
2023/04/19 14:19:06;;;;;;;34.17;16.65;;;;;;;;;;5052912;28;20115;-85
2023/04/19 14:21:31;;;;;;;32.70;15.30;;;;;;;;;;5052555;28;20040;-85
2023/04/19 14:23:59;;;;;;;30.73;15.82;;;;;;;;;;5034989;28;20032;-86
2023/04/19 14:26:25;;;;;;;29.90;15.15;;;;;;;;;;5035412;28;20362;-85
2023/04/19 14:28:51;;;;;;;33.83;16.08;;;;;;;;;;5035207;28;20044;-86
2023/04/19 14:31:16;;;;;;;37.38;16.80;;;;;;;;;;5036168;28;20108;-86
2023/04/19 14:33:42;;;;;;;31.67;16.13;;;;;;;;;;5039516;28;20028;-86
2023/04/19 14:36:07;;;;;;;34.72;16.13;;;;;;;;;;5039596;28;20025;-86